Terminal Aerodrome Forecast
Issued by NWS

Home | Current Version | Previous Version | Text Only | Print | Product List | Glossary On
Versions: 1 2 3 4 5 6 7 8 9 10 11 12 13 14 15 16 17 18 19 20 21 22 23 24
899
FTUS41 KBUF 081748
TAFJHW
TAF
KJHW 081748Z 0818/0918 15012KT P6SM OVC060
     FM090000 14008KT 2SM -SNRA OVC030
     FM090100 14009KT 2SM -SN OVC030
     FM090700 18007KT P6SM VCSH OVC007
     FM090800 18007KT P6SM VCSH OVC012
      AMD LTD TO CLD VIS AND WIND=

USA.gov is the U.S. government's official web portal to all federal, state and local government web resources and services.